sensor_id;sensor_type;location;lat;lon;timestamp;temperature;humidity
45715;DHT22;31430;61.646;24.704;2022-11-18T13:55:00;-1.60;99.90
45715;DHT22;31430;61.646;24.704;2022-11-18T13:57:28;-1.60;99.90
45715;DHT22;31430;61.646;24.704;2022-11-18T13:59:55;-1.70;99.90
45715;DHT22;31430;61.646;24.704;2022-11-18T14:02:23;-1.60;99.90
45715;DHT22;31430;61.646;24.704;2022-11-18T14:04:51;-1.70;99.90
45715;DHT22;31430;61.646;24.704;2022-11-18T14:07:30;-1.80;99.90
45715;DHT22;31430;61.646;24.704;2022-11-18T14:12:29;-1.90;99.90
45715;DHT22;31430;61.646;24.704;2022-11-18T14:17:52;-1.80;99.90
45715;DHT22;31430;61.646;24.704;2022-11-18T14:20:19;-1.70;99.90
45715;DHT22;31430;61.646;24.704;2022-11-18T14:22:45;-1.70;99.90
45715;DHT22;31430;61.646;24.704;2022-11-18T14:25:18;-1.60;99.90
45715;DHT22;31430;61.646;24.704;2022-11-18T14:27:51;-1.70;99.90
45715;DHT22;31430;61.646;24.704;2022-11-18T14:33:16;-1.60;99.90
45715;DHT22;31430;61.646;24.704;2022-11-18T14:41:06;-1.80;99.90
45715;DHT22;31430;61.646;24.704;2022-11-18T14:43:32;-1.70;99.90
45715;DHT22;31430;61.646;24.704;2022-11-18T14:45:58;-1.70;99.90
45715;DHT22;31430;61.646;24.704;2022-11-18T14:48:26;-1.80;99.90
45715;DHT22;31430;61.646;24.704;2022-11-18T14:50:52;-1.90;99.90
45715;DHT22;31430;61.646;24.704;2022-11-18T14:53:18;-1.90;99.90
45715;DHT22;31430;61.646;24.704;2022-11-18T14:55:47;-1.80;99.90
45715;DHT22;31430;61.646;24.704;2022-11-18T14:58:14;-1.90;99.90
45715;DHT22;31430;61.646;24.704;2022-11-18T15:00:45;-2.00;99.90
45715;DHT22;31430;61.646;24.704;2022-11-18T15:03:11;-2.10;99.90
45715;DHT22;31430;61.646;24.704;2022-11-18T15:05:37;-2.10;99.90
45715;DHT22;31430;61.646;24.704;2022-11-18T15:08:03;-2.10;99.90
45715;DHT22;31430;61.646;24.704;2022-11-18T15:10:29;-2.10;99.90
45715;DHT22;31430;61.646;24.704;2022-11-18T15:12:55;-2.10;99.90
45715;DHT22;31430;61.646;24.704;2022-11-18T15:15:21;-2.10;99.90
45715;DHT22;31430;61.646;24.704;2022-11-18T15:17:46;-2.10;99.90
45715;DHT22;31430;61.646;24.704;2022-11-18T15:20:17;-2.00;99.90
45715;DHT22;31430;61.646;24.704;2022-11-18T15:22:43;-2.10;99.90
45715;DHT22;31430;61.646;24.704;2022-11-18T15:25:09;-2.00;99.90
45715;DHT22;31430;61.646;24.704;2022-11-18T15:27:35;-2.10;99.90
45715;DHT22;31430;61.646;24.704;2022-11-18T15:30:01;-2.00;99.90
45715;DHT22;31430;61.646;24.704;2022-11-18T15:32:27;-2.00;99.90
45715;DHT22;31430;61.646;24.704;2022-11-18T15:34:52;-2.00;99.90
45715;DHT22;31430;61.646;24.704;2022-11-18T15:37:18;-1.90;99.90
45715;DHT22;31430;61.646;24.704;2022-11-18T15:39:43;-2.00;99.90
45715;DHT22;31430;61.646;24.704;2022-11-18T15:42:10;-2.00;99.90
45715;DHT22;31430;61.646;24.704;2022-11-18T15:44:36;-2.00;99.90
45715;DHT22;31430;61.646;24.704;2022-11-18T15:47:01;-1.90;99.90
45715;DHT22;31430;61.646;24.704;2022-11-18T15:49:27;-1.90;99.90
45715;DHT22;31430;61.646;24.704;2022-11-18T15:51:53;-1.90;99.90
45715;DHT22;31430;61.646;24.704;2022-11-18T15:54:18;-1.90;99.90
45715;DHT22;31430;61.646;24.704;2022-11-18T15:56:44;-1.90;99.90
45715;DHT22;31430;61.646;24.704;2022-11-18T15:59:16;-1.90;99.90
45715;DHT22;31430;61.646;24.704;2022-11-18T16:01:44;-2.00;99.90
45715;DHT22;31430;61.646;24.704;2022-11-18T16:04:12;-1.90;99.90
45715;DHT22;31430;61.646;24.704;2022-11-18T16:06:40;-1.90;99.90
45715;DHT22;31430;61.646;24.704;2022-11-18T16:09:08;-1.90;99.90
45715;DHT22;31430;61.646;24.704;2022-11-18T16:11:34;-1.90;99.90
45715;DHT22;31430;61.646;24.704;2022-11-18T16:14:21;-1.90;99.90
45715;DHT22;31430;61.646;24.704;2022-11-18T16:16:48;-1.90;99.90
45715;DHT22;31430;61.646;24.704;2022-11-18T16:19:19;-1.90;99.90
45715;DHT22;31430;61.646;24.704;2022-11-18T16:21:48;-1.90;99.90
45715;DHT22;31430;61.646;24.704;2022-11-18T16:24:19;-1.90;99.90
45715;DHT22;31430;61.646;24.704;2022-11-18T16:26:45;-1.90;99.90
45715;DHT22;31430;61.646;24.704;2022-11-18T16:29:11;-1.90;99.90
45715;DHT22;31430;61.646;24.704;2022-11-18T16:31:38;-1.90;99.90
45715;DHT22;31430;61.646;24.704;2022-11-18T16:34:16;-1.90;99.90
45715;DHT22;31430;61.646;24.704;2022-11-18T16:36:44;-1.90;99.90
45715;DHT22;31430;61.646;24.704;2022-11-18T16:39:12;-1.90;99.90
45715;DHT22;31430;61.646;24.704;2022-11-18T16:41:39;-1.90;99.90
45715;DHT22;31430;61.646;24.704;2022-11-18T16:44:07;-1.90;99.90
45715;DHT22;31430;61.646;24.704;2022-11-18T16:46:35;-1.90;99.90
45715;DHT22;31430;61.646;24.704;2022-11-18T16:49:02;-1.90;99.90
45715;DHT22;31430;61.646;24.704;2022-11-18T16:51:30;-1.90;99.90
45715;DHT22;31430;61.646;24.704;2022-11-18T16:53:58;-2.00;99.90
45715;DHT22;31430;61.646;24.704;2022-11-18T16:56:26;-2.00;99.90
45715;DHT22;31430;61.646;24.704;2022-11-18T16:58:59;-2.10;99.90
45715;DHT22;31430;61.646;24.704;2022-11-18T17:01:26;-2.30;99.90
45715;DHT22;31430;61.646;24.704;2022-11-18T17:03:52;-2.30;99.90
45715;DHT22;31430;61.646;24.704;2022-11-18T17:06:20;-2.40;99.90
45715;DHT22;31430;61.646;24.704;2022-11-18T17:08:46;-2.50;99.90
45715;DHT22;31430;61.646;24.704;2022-11-18T17:11:11;-2.50;99.90
45715;DHT22;31430;61.646;24.704;2022-11-18T17:13:37;-2.50;99.90
45715;DHT22;31430;61.646;24.704;2022-11-18T17:16:09;-2.50;99.90
45715;DHT22;31430;61.646;24.704;2022-11-18T17:18:36;-2.50;99.90
45715;DHT22;31430;61.646;24.704;2022-11-18T17:23:28;-2.50;99.90
45715;DHT22;31430;61.646;24.704;2022-11-18T17:25:54;-2.50;99.90
45715;DHT22;31430;61.646;24.704;2022-11-18T17:28:20;-2.60;99.90
45715;DHT22;31430;61.646;24.704;2022-11-18T17:30:45;-2.60;99.90
45715;DHT22;31430;61.646;24.704;2022-11-18T17:33:12;-2.60;99.90
45715;DHT22;31430;61.646;24.704;2022-11-18T17:35:38;-2.60;99.90
45715;DHT22;31430;61.646;24.704;2022-11-18T17:38:04;-2.60;99.90
45715;DHT22;31430;61.646;24.704;2022-11-18T17:40:29;-2.60;99.90
45715;DHT22;31430;61.646;24.704;2022-11-18T17:42:55;-2.60;99.90
45715;DHT22;31430;61.646;24.704;2022-11-18T17:45:21;-2.60;99.90
45715;DHT22;31430;61.646;24.704;2022-11-18T17:47:46;-2.60;99.90
45715;DHT22;31430;61.646;24.704;2022-11-18T17:50:12;-2.60;99.90
45715;DHT22;31430;61.646;24.704;2022-11-18T17:52:38;-2.60;99.90
45715;DHT22;31430;61.646;24.704;2022-11-18T17:55:04;-2.60;99.90
45715;DHT22;31430;61.646;24.704;2022-11-18T17:57:31;-2.60;99.90
45715;DHT22;31430;61.646;24.704;2022-11-18T17:59:57;-2.60;99.90
45715;DHT22;31430;61.646;24.704;2022-11-18T18:02:22;-2.50;99.90
45715;DHT22;31430;61.646;24.704;2022-11-18T18:04:48;-2.50;99.90
45715;DHT22;31430;61.646;24.704;2022-11-18T18:07:14;-2.50;99.90
45715;DHT22;31430;61.646;24.704;2022-11-18T18:09:39;-2.50;99.90
45715;DHT22;31430;61.646;24.704;2022-11-18T18:12:05;-2.70;99.90
45715;DHT22;31430;61.646;24.704;2022-11-18T18:14:51;-2.60;99.90
45715;DHT22;31430;61.646;24.704;2022-11-18T18:17:17;-2.60;99.90
45715;DHT22;31430;61.646;24.704;2022-11-18T18:19:42;-2.60;99.90
45715;DHT22;31430;61.646;24.704;2022-11-18T18:22:08;-2.60;99.90
45715;DHT22;31430;61.646;24.704;2022-11-18T18:24:34;-2.60;99.90
45715;DHT22;31430;61.646;24.704;2022-11-18T18:26:59;-2.70;99.90
45715;DHT22;31430;61.646;24.704;2022-11-18T18:29:25;-2.70;99.90
45715;DHT22;31430;61.646;24.704;2022-11-18T18:31:51;-2.70;99.90
45715;DHT22;31430;61.646;24.704;2022-11-18T18:34:16;-2.80;99.90
45715;DHT22;31430;61.646;24.704;2022-11-18T18:36:42;-2.90;99.90
45715;DHT22;31430;61.646;24.704;2022-11-18T18:39:08;-2.90;99.90
45715;DHT22;31430;61.646;24.704;2022-11-18T18:41:34;-2.90;99.90
45715;DHT22;31430;61.646;24.704;2022-11-18T18:44:00;-2.90;99.90
45715;DHT22;31430;61.646;24.704;2022-11-18T18:46:26;-2.80;99.90
45715;DHT22;31430;61.646;24.704;2022-11-18T18:51:30;-2.90;99.90
45715;DHT22;31430;61.646;24.704;2022-11-18T18:53:57;-2.90;99.90
45715;DHT22;31430;61.646;24.704;2022-11-18T18:56:23;-2.90;99.90
45715;DHT22;31430;61.646;24.704;2022-11-18T18:58:49;-2.80;99.90
45715;DHT22;31430;61.646;24.704;2022-11-18T19:01:16;-2.80;99.90
45715;DHT22;31430;61.646;24.704;2022-11-18T19:03:42;-2.80;99.90
45715;DHT22;31430;61.646;24.704;2022-11-18T19:06:20;-2.80;99.90
45715;DHT22;31430;61.646;24.704;2022-11-18T19:08:46;-2.90;99.90
45715;DHT22;31430;61.646;24.704;2022-11-18T19:11:13;-2.90;99.90
45715;DHT22;31430;61.646;24.704;2022-11-18T19:14:06;-2.90;99.90
45715;DHT22;31430;61.646;24.704;2022-11-18T19:16:33;-2.90;99.90
45715;DHT22;31430;61.646;24.704;2022-11-18T19:19:00;-3.00;99.90
45715;DHT22;31430;61.646;24.704;2022-11-18T19:21:26;-3.00;99.90
45715;DHT22;31430;61.646;24.704;2022-11-18T19:23:51;-3.00;99.90
45715;DHT22;31430;61.646;24.704;2022-11-18T19:26:17;-3.00;99.90
45715;DHT22;31430;61.646;24.704;2022-11-18T19:28:43;-3.00;99.90
45715;DHT22;31430;61.646;24.704;2022-11-18T19:31:09;-3.10;99.90
45715;DHT22;31430;61.646;24.704;2022-11-18T19:33:35;-3.00;99.90
45715;DHT22;31430;61.646;24.704;2022-11-18T19:36:03;-3.00;99.90
45715;DHT22;31430;61.646;24.704;2022-11-18T19:38:29;-3.00;99.90
45715;DHT22;31430;61.646;24.704;2022-11-18T19:41:09;-3.10;99.90
45715;DHT22;31430;61.646;24.704;2022-11-18T19:43:35;-3.10;99.90
45715;DHT22;31430;61.646;24.704;2022-11-18T19:46:02;-3.10;99.90
45715;DHT22;31430;61.646;24.704;2022-11-18T19:48:28;-3.10;99.90
45715;DHT22;31430;61.646;24.704;2022-11-18T19:51:09;-3.00;99.90
45715;DHT22;31430;61.646;24.704;2022-11-18T19:53:36;-3.00;99.90
45715;DHT22;31430;61.646;24.704;2022-11-18T19:56:07;-3.10;99.90
45715;DHT22;31430;61.646;24.704;2022-11-18T19:58:34;-3.20;99.90
45715;DHT22;31430;61.646;24.704;2022-11-18T20:01:20;-3.20;99.90
45715;DHT22;31430;61.646;24.704;2022-11-18T20:03:52;-3.20;99.90
45715;DHT22;31430;61.646;24.704;2022-11-18T20:06:19;-3.20;99.90
45715;DHT22;31430;61.646;24.704;2022-11-18T20:08:45;-3.30;99.90
45715;DHT22;31430;61.646;24.704;2022-11-18T20:11:14;-3.30;99.90
45715;DHT22;31430;61.646;24.704;2022-11-18T20:13:40;-3.30;99.90
45715;DHT22;31430;61.646;24.704;2022-11-18T20:16:10;-3.40;99.90
45715;DHT22;31430;61.646;24.704;2022-11-18T20:18:37;-3.40;99.90
45715;DHT22;31430;61.646;24.704;2022-11-18T20:21:04;-3.40;99.90
45715;DHT22;31430;61.646;24.704;2022-11-18T20:23:31;-3.40;99.90
45715;DHT22;31430;61.646;24.704;2022-11-18T20:26:04;-3.40;99.90
45715;DHT22;31430;61.646;24.704;2022-11-18T20:28:32;-3.40;99.90
45715;DHT22;31430;61.646;24.704;2022-11-18T20:30:58;-3.40;99.90
45715;DHT22;31430;61.646;24.704;2022-11-18T20:33:24;-3.40;99.90
45715;DHT22;31430;61.646;24.704;2022-11-18T20:35:50;-3.50;99.90
45715;DHT22;31430;61.646;24.704;2022-11-18T20:38:15;-3.50;99.90
45715;DHT22;31430;61.646;24.704;2022-11-18T20:40:41;-3.50;99.90
45715;DHT22;31430;61.646;24.704;2022-11-18T20:43:09;-3.40;99.90
45715;DHT22;31430;61.646;24.704;2022-11-18T20:45:39;-3.40;99.90
45715;DHT22;31430;61.646;24.704;2022-11-18T20:48:05;-3.40;99.90
45715;DHT22;31430;61.646;24.704;2022-11-18T20:50:34;-3.40;99.90
45715;DHT22;31430;61.646;24.704;2022-11-18T20:53:00;-3.40;99.90
45715;DHT22;31430;61.646;24.704;2022-11-18T20:55:26;-3.50;99.90
45715;DHT22;31430;61.646;24.704;2022-11-18T20:57:51;-3.50;99.90
45715;DHT22;31430;61.646;24.704;2022-11-18T21:00:17;-3.60;99.90
45715;DHT22;31430;61.646;24.704;2022-11-18T21:02:43;-3.60;99.90
45715;DHT22;31430;61.646;24.704;2022-11-18T21:05:09;-3.50;99.90
45715;DHT22;31430;61.646;24.704;2022-11-18T21:07:34;-3.60;99.90
45715;DHT22;31430;61.646;24.704;2022-11-18T21:10:00;-3.60;99.90
45715;DHT22;31430;61.646;24.704;2022-11-18T21:12:26;-3.70;99.90
45715;DHT22;31430;61.646;24.704;2022-11-18T21:14:52;-3.70;99.90
45715;DHT22;31430;61.646;24.704;2022-11-18T21:17:18;-3.70;99.90
45715;DHT22;31430;61.646;24.704;2022-11-18T21:19:43;-3.70;99.90
45715;DHT22;31430;61.646;24.704;2022-11-18T21:22:10;-3.70;99.90
45715;DHT22;31430;61.646;24.704;2022-11-18T21:24:36;-3.70;99.90
45715;DHT22;31430;61.646;24.704;2022-11-18T21:27:03;-3.70;99.90
45715;DHT22;31430;61.646;24.704;2022-11-18T21:29:30;-3.70;99.90
45715;DHT22;31430;61.646;24.704;2022-11-18T21:31:56;-3.70;99.90
45715;DHT22;31430;61.646;24.704;2022-11-18T21:34:22;-3.80;99.90
45715;DHT22;31430;61.646;24.704;2022-11-18T21:36:49;-3.90;99.90
45715;DHT22;31430;61.646;24.704;2022-11-18T21:39:14;-4.00;99.90
45715;DHT22;31430;61.646;24.704;2022-11-18T21:41:41;-4.00;99.90
45715;DHT22;31430;61.646;24.704;2022-11-18T21:44:08;-4.00;99.90
45715;DHT22;31430;61.646;24.704;2022-11-18T21:46:36;-4.00;99.90
45715;DHT22;31430;61.646;24.704;2022-11-18T21:49:03;-4.10;99.90
45715;DHT22;31430;61.646;24.704;2022-11-18T21:51:29;-4.10;99.90
45715;DHT22;31430;61.646;24.704;2022-11-18T21:53:58;-4.20;99.90
45715;DHT22;31430;61.646;24.704;2022-11-18T21:56:28;-4.30;99.90
45715;DHT22;31430;61.646;24.704;2022-11-18T21:58:59;-4.20;99.90
45715;DHT22;31430;61.646;24.704;2022-11-18T22:01:27;-4.30;99.90
45715;DHT22;31430;61.646;24.704;2022-11-18T22:03:58;-4.40;99.90
45715;DHT22;31430;61.646;24.704;2022-11-18T22:06:25;-4.60;99.90
45715;DHT22;31430;61.646;24.704;2022-11-18T22:08:51;-4.60;99.90
45715;DHT22;31430;61.646;24.704;2022-11-18T22:11:17;-4.60;99.90
45715;DHT22;31430;61.646;24.704;2022-11-18T22:13:44;-4.60;99.90
45715;DHT22;31430;61.646;24.704;2022-11-18T22:16:12;-4.60;99.90
45715;DHT22;31430;61.646;24.704;2022-11-18T22:18:42;-4.50;99.90
45715;DHT22;31430;61.646;24.704;2022-11-18T22:21:19;-4.40;99.90
45715;DHT22;31430;61.646;24.704;2022-11-18T22:23:45;-4.40;99.90
45715;DHT22;31430;61.646;24.704;2022-11-18T22:26:14;-4.40;99.90
45715;DHT22;31430;61.646;24.704;2022-11-18T22:28:40;-4.40;99.90
45715;DHT22;31430;61.646;24.704;2022-11-18T22:33:34;-4.50;99.90
45715;DHT22;31430;61.646;24.704;2022-11-18T22:36:04;-4.50;99.90
45715;DHT22;31430;61.646;24.704;2022-11-18T22:38:31;-4.40;99.90
45715;DHT22;31430;61.646;24.704;2022-11-18T22:40:58;-4.50;99.90
45715;DHT22;31430;61.646;24.704;2022-11-18T22:43:24;-4.40;99.90
45715;DHT22;31430;61.646;24.704;2022-11-18T22:46:06;-4.30;99.90
45715;DHT22;31430;61.646;24.704;2022-11-18T22:48:33;-4.30;99.90
45715;DHT22;31430;61.646;24.704;2022-11-18T22:51:01;-4.40;99.90
45715;DHT22;31430;61.646;24.704;2022-11-18T23:07:34;-4.60;99.90
45715;DHT22;31430;61.646;24.704;2022-11-18T23:10:00;-4.60;99.90
45715;DHT22;31430;61.646;24.704;2022-11-18T23:12:26;-4.60;99.90
45715;DHT22;31430;61.646;24.704;2022-11-18T23:15:10;-4.60;99.90
45715;DHT22;31430;61.646;24.704;2022-11-18T23:17:35;-4.60;99.90
45715;DHT22;31430;61.646;24.704;2022-11-18T23:20:01;-4.60;99.90
45715;DHT22;31430;61.646;24.704;2022-11-18T23:22:27;-4.70;99.90
45715;DHT22;31430;61.646;24.704;2022-11-18T23:24:52;-4.70;99.90
45715;DHT22;31430;61.646;24.704;2022-11-18T23:27:18;-4.60;99.90
45715;DHT22;31430;61.646;24.704;2022-11-18T23:29:44;-4.60;99.90
45715;DHT22;31430;61.646;24.704;2022-11-18T23:32:09;-4.60;99.90
45715;DHT22;31430;61.646;24.704;2022-11-18T23:34:35;-4.50;99.90
45715;DHT22;31430;61.646;24.704;2022-11-18T23:37:00;-4.60;99.90
45715;DHT22;31430;61.646;24.704;2022-11-18T23:39:26;-4.60;99.90
45715;DHT22;31430;61.646;24.704;2022-11-18T23:41:52;-4.70;99.90
45715;DHT22;31430;61.646;24.704;2022-11-18T23:44:17;-4.70;99.90
45715;DHT22;31430;61.646;24.704;2022-11-18T23:47:03;-4.70;99.90
45715;DHT22;31430;61.646;24.704;2022-11-18T23:49:29;-4.70;99.90
45715;DHT22;31430;61.646;24.704;2022-11-18T23:51:54;-4.70;99.90
45715;DHT22;31430;61.646;24.704;2022-11-18T23:54:20;-4.70;99.90
45715;DHT22;31430;61.646;24.704;2022-11-18T23:56:45;-4.70;99.90
45715;DHT22;31430;61.646;24.704;2022-11-18T23:59:11;-4.70;99.90
